Time;durP1;ratioP1;P1;durP2;ratioP2;P2;SDS_P1;SDS_P2;PMS_P1;PMS_P2;Temp;Humidity;BMP_temperature;BMP_pressure;BME280_temperature;BME280_humidity;BME280_pressure;Samples;Min_cycle;Max_cycle;Signal;HPM_P1;HPM_P2
2022/01/31 00:00:11;;;;;;;18.42;6.20;;;3.80;99.90;;;;;;5116344;27;20038;-78
2022/01/31 00:02:37;;;;;;;15.35;5.57;;;3.80;99.90;;;;;;5133209;27;20047;-77
2022/01/31 00:05:04;;;;;;;17.83;6.13;;;3.80;99.90;;;;;;5132147;27;20058;-78
2022/01/31 00:07:30;;;;;;;18.60;6.60;;;3.80;99.90;;;;;;5133988;27;20055;-79
2022/01/31 00:09:56;;;;;;;15.27;6.50;;;3.80;99.90;;;;;;5133747;27;20051;-78
2022/01/31 00:12:24;;;;;;;18.20;6.28;;;3.90;99.90;;;;;;5154713;27;20043;-77
2022/01/31 00:14:51;;;;;;;18.25;6.43;;;3.90;99.90;;;;;;5135770;27;20054;-77
2022/01/31 00:17:17;;;;;;;18.58;6.88;;;4.00;99.90;;;;;;5153893;27;20050;-78
2022/01/31 00:19:44;;;;;;;16.38;6.00;;;4.00;99.90;;;;;;5153640;27;20100;-77
2022/01/31 00:22:13;;;;;;;20.75;6.50;;;4.00;99.90;;;;;;5135005;27;20114;-78
2022/01/31 00:24:39;;;;;;;18.30;6.85;;;4.00;99.90;;;;;;5131903;27;20062;-78
2022/01/31 00:27:06;;;;;;;18.73;6.68;;;4.10;99.90;;;;;;5145075;27;20500;-78
2022/01/31 00:29:32;;;;;;;15.32;6.78;;;4.10;99.90;;;;;;5133419;27;20047;-77
2022/01/31 00:31:57;;;;;;;14.10;6.88;;;4.10;99.90;;;;;;5133046;27;20095;-78
2022/01/31 00:34:23;;;;;;;14.07;6.40;;;4.10;99.90;;;;;;5133224;27;20049;-78
2022/01/31 00:36:49;;;;;;;17.65;6.88;;;4.10;99.90;;;;;;5148376;27;20050;-74
2022/01/31 00:39:15;;;;;;;15.98;7.20;;;4.10;99.90;;;;;;5133878;27;20046;-78
2022/01/31 00:41:41;;;;;;;13.05;6.35;;;4.10;99.90;;;;;;5133739;27;20519;-77
2022/01/31 00:46:42;;;;;;;12.82;6.88;;;4.10;99.90;;;;;;5138683;27;20391;-77
2022/01/31 00:49:22;;;;;;;14.20;7.43;;;4.00;99.90;;;;;;5133000;27;20121;-77
2022/01/31 00:51:48;;;;;;;14.85;6.75;;;4.00;99.90;;;;;;5138843;27;20039;-76
2022/01/31 00:54:14;;;;;;;13.68;6.55;;;4.00;99.90;;;;;;5131720;28;20549;-77
2022/01/31 00:56:39;;;;;;;13.93;6.68;;;4.10;99.90;;;;;;5145814;27;20053;-77
2022/01/31 00:59:05;;;;;;;13.60;6.60;;;4.10;99.90;;;;;;5152464;27;20119;-77
2022/01/31 01:01:31;;;;;;;15.35;6.78;;;4.10;99.90;;;;;;5142819;27;20047;-77
2022/01/31 01:03:56;;;;;;;15.57;7.50;;;4.10;99.90;;;;;;5132660;28;20055;-76
2022/01/31 01:06:22;;;;;;;14.73;6.93;;;4.10;99.90;;;;;;5137321;27;20039;-77
2022/01/31 01:08:49;;;;;;;21.52;8.65;;;4.10;99.90;;;;;;5132909;28;20052;-77
2022/01/31 01:11:15;;;;;;;13.18;7.38;;;4.10;99.90;;;;;;5143133;27;20127;-78
2022/01/31 01:13:40;;;;;;;16.33;8.27;;;4.10;99.90;;;;;;5157501;27;20555;-78
2022/01/31 01:16:06;;;;;;;14.88;7.82;;;4.10;99.90;;;;;;5148371;27;20500;-77
2022/01/31 01:18:32;;;;;;;16.85;8.35;;;4.20;99.90;;;;;;5136903;27;20155;-78
2022/01/31 01:20:57;;;;;;;21.13;9.18;;;4.10;99.90;;;;;;5136766;27;20047;-74
2022/01/31 01:23:23;;;;;;;15.13;8.90;;;4.10;99.90;;;;;;5156297;27;20047;-77
2022/01/31 01:25:50;;;;;;;17.48;8.88;;;4.20;99.90;;;;;;5150194;27;20390;-77
2022/01/31 01:28:15;;;;;;;21.13;9.43;;;4.20;99.90;;;;;;5143844;27;20089;-77
2022/01/31 01:30:41;;;;;;;18.55;10.05;;;4.20;99.90;;;;;;5140201;27;20129;-77
2022/01/31 01:33:11;;;;;;;20.17;10.48;;;4.20;99.90;;;;;;5148333;27;20126;-80
2022/01/31 01:35:39;;;;;;;20.02;11.23;;;4.20;99.90;;;;;;5138628;27;20164;-78
2022/01/31 01:38:07;;;;;;;23.77;11.95;;;4.10;99.90;;;;;;5143223;27;20050;-77
2022/01/31 01:40:39;;;;;;;20.73;11.20;;;4.20;99.90;;;;;;5138183;27;20039;-77
2022/01/31 01:43:05;;;;;;;19.08;12.73;;;4.20;99.90;;;;;;5136030;27;20039;-78
2022/01/31 01:45:31;;;;;;;20.35;13.15;;;4.20;99.90;;;;;;5140384;27;20041;-78
2022/01/31 01:47:57;;;;;;;21.40;13.52;;;4.20;99.90;;;;;;5138880;27;20042;-79
2022/01/31 01:50:22;;;;;;;22.35;14.40;;;4.10;99.90;;;;;;5135007;27;20057;-82
2022/01/31 01:52:50;;;;;;;24.58;14.85;;;4.10;99.90;;;;;;5118388;27;20046;-81
2022/01/31 01:55:17;;;;;;;23.73;15.45;;;4.00;99.90;;;;;;5136097;27;20126;-79
2022/01/31 01:57:42;;;;;;;24.23;16.38;;;3.90;99.90;;;;;;5144586;27;20523;-78
2022/01/31 02:00:15;;;;;;;22.33;15.30;;;3.80;99.90;;;;;;5134852;27;20039;-78
2022/01/31 02:02:43;;;;;;;23.63;16.20;;;3.80;99.90;;;;;;5136502;27;20047;-78
2022/01/31 02:05:09;;;;;;;20.88;15.73;;;3.80;99.90;;;;;;5135665;27;20066;-77
2022/01/31 02:07:35;;;;;;;24.67;15.70;;;3.80;99.90;;;;;;5134384;27;20051;-77
2022/01/31 02:10:06;;;;;;;21.73;16.40;;;3.80;99.90;;;;;;5149935;27;20054;-73
2022/01/31 02:12:38;;;;;;;;;;;3.70;99.90;;;;;;5156902;27;20049;-77
2022/01/31 02:15:05;;;;;;;21.85;16.25;;;3.60;99.90;;;;;;5156095;27;20355;-73
2022/01/31 02:17:31;;;;;;;28.38;17.20;;;3.60;99.90;;;;;;5146245;27;20078;-77
2022/01/31 02:19:57;;;;;;;23.02;17.35;;;3.50;99.90;;;;;;5136199;27;20079;-77
2022/01/31 02:22:22;;;;;;;25.60;17.67;;;3.50;99.90;;;;;;5134659;27;20054;-76
2022/01/31 02:24:48;;;;;;;28.17;17.67;;;3.50;99.90;;;;;;5135249;27;20122;-77
2022/01/31 02:27:13;;;;;;;25.52;17.38;;;3.50;99.90;;;;;;5134810;27;20494;-76
2022/01/31 02:29:39;;;;;;;23.63;17.13;;;3.60;99.90;;;;;;5135374;27;20042;-77
2022/01/31 02:32:05;;;;;;;24.17;16.90;;;3.60;99.90;;;;;;5148291;27;20035;-71
2022/01/31 02:34:31;;;;;;;27.35;18.85;;;3.50;99.90;;;;;;5156105;27;20441;-77
2022/01/31 02:36:57;;;;;;;23.40;17.73;;;3.50;99.90;;;;;;5155796;27;20043;-77
2022/01/31 02:39:22;;;;;;;26.33;19.02;;;3.50;99.90;;;;;;5142144;27;20125;-77
2022/01/31 02:41:48;;;;;;;28.27;19.10;;;3.50;99.90;;;;;;5147485;27;20046;-77
2022/01/31 02:44:15;;;;;;;24.55;18.70;;;3.50;99.90;;;;;;5153991;27;20453;-76
2022/01/31 02:46:52;;;;;;;21.15;18.67;;;3.50;99.90;;;;;;5135602;27;20047;-77
2022/01/31 02:49:22;;;;;;;23.92;18.83;;;3.50;99.90;;;;;;5135977;27;20484;-76
2022/01/31 02:51:54;;;;;;;25.48;17.98;;;3.50;99.90;;;;;;5143924;27;20046;-77
2022/01/31 02:54:19;;;;;;;20.10;17.98;;;3.50;99.90;;;;;;5152935;27;20540;-75
2022/01/31 02:56:45;;;;;;;20.48;18.27;;;3.50;99.90;;;;;;5134782;27;20118;-75
2022/01/31 02:59:11;;;;;;;22.20;18.40;;;3.50;99.90;;;;;;5134830;27;20369;-75
2022/01/31 03:01:37;;;;;;;21.92;17.92;;;3.60;99.90;;;;;;5135130;27;20483;-75
2022/01/31 03:04:05;;;;;;;19.00;16.52;;;3.60;99.90;;;;;;5135010;27;20111;-75
2022/01/31 03:06:31;;;;;;;18.40;16.50;;;3.60;99.90;;;;;;5134774;27;20065;-76
2022/01/31 03:08:57;;;;;;;17.42;14.88;;;3.60;99.90;;;;;;5134911;27;20479;-76
2022/01/31 03:11:23;;;;;;;17.15;15.38;;;3.60;99.90;;;;;;5139683;27;20412;-75
2022/01/31 03:13:49;;;;;;;18.27;16.00;;;3.60;99.90;;;;;;5151319;27;20035;-76
2022/01/31 03:16:14;;;;;;;15.82;14.27;;;3.60;99.90;;;;;;5134311;27;20047;-75
2022/01/31 03:18:40;;;;;;;16.73;14.68;;;3.50;99.90;;;;;;5168889;27;20087;-75
2022/01/31 03:21:06;;;;;;;15.85;14.25;;;3.60;99.90;;;;;;5133277;27;20507;-75
2022/01/31 03:23:33;;;;;;;16.38;14.75;;;3.60;99.90;;;;;;5133710;27;20035;-76
2022/01/31 03:25:59;;;;;;;18.42;15.13;;;3.60;99.90;;;;;;5133950;27;20425;-76
2022/01/31 03:28:25;;;;;;;17.20;15.32;;;3.60;99.90;;;;;;5153484;27;20129;-75
2022/01/31 03:30:51;;;;;;;17.58;15.15;;;3.50;99.90;;;;;;5154319;27;20388;-76
2022/01/31 03:33:18;;;;;;;17.02;15.00;;;3.50;99.90;;;;;;5138660;27;20051;-75
2022/01/31 03:35:43;;;;;;;17.92;15.98;;;3.50;99.90;;;;;;5133737;27;20122;-76
2022/01/31 03:38:09;;;;;;;18.65;16.33;;;3.50;99.90;;;;;;5150423;27;20071;-76
2022/01/31 03:40:35;;;;;;;17.60;15.65;;;3.50;99.90;;;;;;5133758;27;20051;-75
2022/01/31 03:43:00;;;;;;;17.38;14.88;;;3.50;99.90;;;;;;5148519;27;20099;-76
2022/01/31 03:45:32;;;;;;;16.95;15.23;;;3.50;99.90;;;;;;5135467;27;20050;-76
2022/01/31 03:48:00;;;;;;;16.80;15.05;;;3.50;99.90;;;;;;5147925;27;20050;-76
2022/01/31 03:50:26;;;;;;;16.70;14.93;;;3.50;99.90;;;;;;5140351;27;20047;-76
2022/01/31 03:52:53;;;;;;;16.95;15.25;;;3.60;99.90;;;;;;5135515;27;20079;-76
2022/01/31 03:55:20;;;;;;;17.63;15.68;;;3.60;99.90;;;;;;5144427;27;20046;-75
2022/01/31 03:57:45;;;;;;;18.08;16.17;;;3.60;99.90;;;;;;5154872;27;20038;-76
2022/01/31 04:00:13;;;;;;;19.60;16.45;;;3.60;99.90;;;;;;5142871;27;20051;-76
2022/01/31 04:02:40;;;;;;;20.33;17.20;;;3.70;99.90;;;;;;5146275;27;20046;-75
2022/01/31 04:05:07;;;;;;;20.27;17.02;;;3.70;99.90;;;;;;5148035;27;20051;-76
2022/01/31 04:07:33;;;;;;;18.98;16.98;;;3.70;99.90;;;;;;5136585;27;20403;-75
2022/01/31 04:09:59;;;;;;;22.50;17.73;;;3.80;99.90;;;;;;5146463;27;20548;-76
2022/01/31 04:12:25;;;;;;;22.48;17.65;;;3.90;99.90;;;;;;5133213;27;20043;-76
2022/01/31 04:14:51;;;;;;;21.33;17.15;;;3.80;99.90;;;;;;5133631;27;20066;-76
2022/01/31 04:17:19;;;;;;;19.92;17.38;;;3.90;99.90;;;;;;5134056;27;20051;-72
2022/01/31 04:19:47;;;;;;;21.83;16.85;;;3.90;99.90;;;;;;5132586;27;20130;-75
2022/01/31 04:22:16;;;;;;;22.77;16.75;;;3.90;99.90;;;;;;5137261;27;20100;-76
2022/01/31 04:24:42;;;;;;;21.05;15.90;;;3.90;99.90;;;;;;5138494;27;20074;-76
2022/01/31 04:27:15;;;;;;;22.38;15.45;;;3.90;99.90;;;;;;5154214;27;20559;-77
2022/01/31 04:29:43;;;;;;;21.08;12.60;;;4.00;99.90;;;;;;5147320;27;20512;-77
2022/01/31 04:32:09;;;;;;;21.40;11.77;;;4.10;99.90;;;;;;5133910;27;20046;-77
2022/01/31 04:34:34;;;;;;;21.60;10.98;;;4.10;99.90;;;;;;5136915;27;20030;-77
2022/01/31 04:37:00;;;;;;;24.00;9.85;;;4.20;99.90;;;;;;5146068;27;20047;-78
2022/01/31 04:39:28;;;;;;;17.77;8.25;;;4.30;99.90;;;;;;5137308;27;20051;-76
2022/01/31 04:41:54;;;;;;;15.10;7.32;;;4.40;99.90;;;;;;5152922;27;20058;-77
2022/01/31 04:44:20;;;;;;;22.20;6.43;;;4.50;99.90;;;;;;5153499;27;20050;-77
2022/01/31 04:46:49;;;;;;;20.92;6.57;;;4.50;99.90;;;;;;5152117;27;20402;-77
2022/01/31 04:49:24;;;;;;;18.05;5.72;;;4.60;99.90;;;;;;5158588;27;20046;-78
2022/01/31 04:51:51;;;;;;;21.60;6.03;;;4.70;99.90;;;;;;5155867;27;20042;-78
2022/01/31 04:54:17;;;;;;;17.60;5.68;;;4.80;99.90;;;;;;5142044;27;20092;-78
2022/01/31 04:56:44;;;;;;;21.63;5.72;;;4.80;99.90;;;;;;5151036;27;20514;-80
2022/01/31 04:59:10;;;;;;;19.20;4.57;;;4.90;99.90;;;;;;5158519;27;20065;-78
2022/01/31 05:01:42;;;;;;;18.92;4.90;;;5.00;99.90;;;;;;5144788;27;20556;-78
2022/01/31 05:04:08;;;;;;;18.88;4.95;;;5.00;99.90;;;;;;5137430;27;20051;-78
2022/01/31 05:06:37;;;;;;;18.15;4.82;;;5.10;99.90;;;;;;5148610;27;20510;-78
2022/01/31 05:09:03;;;;;;;16.65;4.25;;;5.10;99.90;;;;;;5154264;27;20059;-78
2022/01/31 05:11:29;;;;;;;19.27;5.10;;;5.20;99.90;;;;;;5146030;27;20597;-77
2022/01/31 05:13:55;;;;;;;16.10;4.43;;;5.20;99.90;;;;;;5145674;27;20047;-75
2022/01/31 05:16:22;;;;;;;21.67;5.15;;;5.30;99.90;;;;;;5139450;27;20055;-78
2022/01/31 05:18:48;;;;;;;19.88;4.97;;;5.30;99.90;;;;;;5142038;27;20054;-79
2022/01/31 05:21:13;;;;;;;15.52;4.57;;;5.30;99.90;;;;;;5137293;27;20053;-79
2022/01/31 05:23:39;;;;;;;16.52;4.30;;;5.30;99.90;;;;;;5136606;27;20476;-79
2022/01/31 05:26:05;;;;;;;17.70;4.18;;;5.30;99.90;;;;;;5135342;27;20391;-78
2022/01/31 05:28:31;;;;;;;15.43;4.13;;;5.30;99.90;;;;;;5136718;27;20072;-77
2022/01/31 05:30:56;;;;;;;12.10;3.65;;;5.30;99.90;;;;;;5137216;27;20047;-78
2022/01/31 05:33:22;;;;;;;11.05;3.50;;;5.30;99.90;;;;;;5135556;27;20552;-78
2022/01/31 05:35:48;;;;;;;14.43;3.63;;;5.20;99.90;;;;;;5136351;27;20108;-78
2022/01/31 05:38:14;;;;;;;16.45;3.53;;;5.10;99.90;;;;;;5136329;27;20080;-78
2022/01/31 05:40:40;;;;;;;13.57;3.63;;;5.10;99.90;;;;;;5135211;27;20047;-76
2022/01/31 05:43:05;;;;;;;19.80;4.15;;;5.10;99.90;;;;;;5136133;27;20043;-78
2022/01/31 05:45:31;;;;;;;17.17;4.30;;;5.00;99.90;;;;;;5136418;27;20127;-76
2022/01/31 05:47:58;;;;;;;17.13;5.28;;;4.90;99.90;;;;;;5136012;27;20046;-78
2022/01/31 05:50:24;;;;;;;17.88;3.83;;;4.90;99.90;;;;;;5136308;27;20054;-78
2022/01/31 05:52:51;;;;;;;17.27;4.30;;;4.90;99.90;;;;;;5135971;27;20122;-79
2022/01/31 05:55:16;;;;;;;20.48;4.35;;;5.00;99.90;;;;;;5136786;27;20061;-79
2022/01/31 05:57:43;;;;;;;11.18;3.22;;;5.00;99.90;;;;;;5135734;27;20047;-80
2022/01/31 06:00:10;;;;;;;8.68;2.08;;;5.00;99.90;;;;;;5135594;27;20130;-80
2022/01/31 06:02:36;;;;;;;4.88;1.55;;;4.90;99.90;;;;;;5135722;27;20140;-79
2022/01/31 06:05:03;;;;;;;6.40;1.50;;;4.90;99.90;;;;;;5136500;27;20083;-79
2022/01/31 06:07:28;;;;;;;4.40;1.00;;;4.80;99.90;;;;;;5136451;27;20043;-79
2022/01/31 06:09:54;;;;;;;3.63;1.00;;;4.80;99.90;;;;;;5135743;27;20055;-74
2022/01/31 06:12:20;;;;;;;4.18;1.33;;;4.70;99.90;;;;;;5128634;27;20065;-77
2022/01/31 06:14:45;;;;;;;5.88;1.25;;;4.70;99.90;;;;;;5129101;27;20441;-73
2022/01/31 06:17:11;;;;;;;4.40;1.38;;;4.70;99.90;;;;;;5131716;27;20043;-78
2022/01/31 06:19:37;;;;;;;5.32;1.30;;;4.60;99.90;;;;;;5132653;27;20050;-79
2022/01/31 06:22:03;;;;;;;6.07;1.85;;;4.60;99.90;;;;;;5132483;27;20450;-75
2022/01/31 06:24:28;;;;;;;6.10;1.48;;;4.60;99.90;;;;;;5132140;27;20523;-79
2022/01/31 06:26:54;;;;;;;9.32;1.58;;;4.60;99.90;;;;;;5131716;27;20039;-79
2022/01/31 06:29:20;;;;;;;5.28;2.22;;;4.60;99.90;;;;;;5132586;27;20050;-78
2022/01/31 06:31:46;;;;;;;9.02;1.90;;;4.60;99.90;;;;;;5131802;27;20122;-79
2022/01/31 06:34:11;;;;;;;7.75;2.22;;;4.60;99.90;;;;;;5132447;27;20452;-71
2022/01/31 06:36:37;;;;;;;7.03;1.77;;;4.60;99.90;;;;;;5131892;27;20058;-77
2022/01/31 06:39:03;;;;;;;7.30;1.90;;;4.60;99.90;;;;;;5132356;27;20449;-70
2022/01/31 06:41:29;;;;;;;11.38;2.25;;;4.70;99.90;;;;;;5132530;27;20118;-70
2022/01/31 06:43:56;;;;;;;9.45;2.10;;;4.70;99.90;;;;;;5131622;27;20150;-80
2022/01/31 06:46:22;;;;;;;10.93;2.03;;;4.70;99.90;;;;;;5132546;27;20043;-77
2022/01/31 06:48:48;;;;;;;9.10;2.45;;;4.70;99.90;;;;;;5131829;27;20046;-79
2022/01/31 06:51:14;;;;;;;11.20;2.15;;;4.70;99.90;;;;;;5132164;27;20043;-81
2022/01/31 06:53:41;;;;;;;9.93;2.28;;;4.70;99.90;;;;;;5131545;27;20068;-78
2022/01/31 06:56:07;;;;;;;11.30;2.33;;;4.70;99.90;;;;;;5132001;27;20043;-80
2022/01/31 06:58:32;;;;;;;9.52;2.58;;;4.70;99.90;;;;;;5132208;27;20046;-80
2022/01/31 07:00:58;;;;;;;15.30;3.28;;;4.70;99.90;;;;;;5131879;27;20035;-79
2022/01/31 07:03:24;;;;;;;10.35;2.40;;;4.80;99.90;;;;;;5132006;27;20099;-77
2022/01/31 07:05:50;;;;;;;12.23;2.70;;;4.70;99.90;;;;;;5131520;27;20062;-80
2022/01/31 07:08:16;;;;;;;13.60;2.85;;;4.70;99.90;;;;;;5132545;27;20100;-78
2022/01/31 07:10:51;;;;;;;19.67;3.58;;;4.80;99.90;;;;;;5130620;27;20054;-74
2022/01/31 07:15:57;;;;;;;11.70;3.10;;;4.80;99.90;;;;;;5130488;27;20051;-80
2022/01/31 07:18:23;;;;;;;11.40;2.65;;;4.80;99.90;;;;;;5132184;27;20116;-70
2022/01/31 07:20:52;;;;;;;14.75;2.80;;;4.90;99.90;;;;;;5129700;27;20050;-80
2022/01/31 07:23:24;;;;;;;8.38;2.17;;;4.90;99.90;;;;;;5131203;27;20043;-80
2022/01/31 07:25:50;;;;;;;8.63;2.33;;;4.90;99.90;;;;;;5128158;27;20047;-80
2022/01/31 07:28:16;;;;;;;8.38;2.22;;;4.90;99.90;;;;;;5131179;27;20050;-75
2022/01/31 07:30:52;;;;;;;8.07;2.03;;;4.90;99.90;;;;;;5128756;27;20051;-74
2022/01/31 07:33:18;;;;;;;10.77;1.70;;;5.00;99.90;;;;;;5130383;27;20035;-73
2022/01/31 07:35:48;;;;;;;7.38;1.58;;;4.90;99.90;;;;;;5128072;27;20070;-82
2022/01/31 07:38:14;;;;;;;6.05;1.40;;;4.90;99.90;;;;;;5131895;27;20046;-82
2022/01/31 07:40:40;;;;;;;6.07;1.30;;;4.90;99.90;;;;;;5131634;27;20047;-77
2022/01/31 07:43:06;;;;;;;5.63;1.60;;;5.00;99.90;;;;;;5129976;27;20051;-79
2022/01/31 07:45:32;;;;;;;6.47;1.60;;;4.90;99.90;;;;;;5130264;27;20086;-80
2022/01/31 07:47:57;;;;;;;5.88;1.50;;;4.90;99.90;;;;;;5129468;27;20129;-78
2022/01/31 07:50:23;;;;;;;5.63;1.60;;;4.90;99.90;;;;;;5129525;27;20043;-78
2022/01/31 07:52:49;;;;;;;5.90;1.30;;;4.90;99.90;;;;;;5129173;27;20043;-69
2022/01/31 07:55:15;;;;;;;5.35;1.55;;;4.90;99.90;;;;;;5130390;27;20538;-70
2022/01/31 07:57:42;;;;;;;4.35;1.27;;;4.90;99.90;;;;;;5130553;27;20043;-70
2022/01/31 08:00:09;;;;;;;7.93;1.90;;;4.90;99.90;;;;;;5129440;27;20039;-80
2022/01/31 08:02:35;;;;;;;6.55;2.10;;;4.90;99.90;;;;;;5131257;27;20571;-80
2022/01/31 08:05:00;;;;;;;7.78;1.65;;;5.00;99.90;;;;;;5129890;27;20051;-77
2022/01/31 08:07:26;;;;;;;7.07;1.70;;;4.90;99.90;;;;;;5130266;27;20050;-80
2022/01/31 08:09:52;;;;;;;8.43;1.92;;;4.90;99.90;;;;;;5130241;27;20043;-79
2022/01/31 08:12:18;;;;;;;8.27;1.80;;;4.90;99.90;;;;;;5133079;27;20035;-81
2022/01/31 08:14:45;;;;;;;10.60;2.20;;;5.00;99.90;;;;;;5134016;27;20039;-81
2022/01/31 08:17:10;;;;;;;7.65;1.92;;;5.00;99.90;;;;;;5133965;27;20051;-80
2022/01/31 08:19:36;;;;;;;11.93;2.45;;;5.00;99.90;;;;;;5133071;27;20122;-80
2022/01/31 08:22:02;;;;;;;7.85;1.85;;;5.00;99.90;;;;;;5130852;27;20464;-81
2022/01/31 08:24:27;;;;;;;9.88;3.25;;;5.00;99.90;;;;;;5133841;27;20084;-72
2022/01/31 08:26:53;;;;;;;7.60;1.73;;;5.00;99.90;;;;;;5133116;27;20047;-80
2022/01/31 08:29:22;;;;;;;9.60;2.33;;;5.10;99.90;;;;;;5133603;27;20043;-80
2022/01/31 08:31:52;;;;;;;7.93;1.70;;;5.10;99.90;;;;;;5132985;27;20043;-69
2022/01/31 08:34:23;;;;;;;8.98;2.28;;;5.10;99.90;;;;;;5133781;27;20125;-80
2022/01/31 08:36:50;;;;;;;9.13;2.10;;;5.10;99.90;;;;;;5133498;27;20403;-74
2022/01/31 08:39:21;;;;;;;9.68;2.58;;;5.20;99.90;;;;;;5133631;27;20043;-80
2022/01/31 08:41:51;;;;;;;10.05;2.35;;;5.20;99.90;;;;;;5133769;27;20114;-80
2022/01/31 08:44:19;;;;;;;10.17;2.23;;;5.20;99.90;;;;;;5132727;27;20043;-81
2022/01/31 08:46:47;;;;;;;7.88;2.08;;;5.30;99.90;;;;;;5132031;28;20050;-81
2022/01/31 08:49:14;;;;;;;7.97;2.25;;;5.30;99.90;;;;;;5133015;27;20043;-80
2022/01/31 08:51:41;;;;;;;7.57;1.70;;;5.40;99.90;;;;;;5133530;27;20051;-81
2022/01/31 08:54:07;;;;;;;10.85;2.20;;;5.40;99.90;;;;;;5132946;27;20404;-80
2022/01/31 08:56:40;;;;;;;9.45;2.30;;;5.50;99.90;;;;;;5133539;27;20513;-80
2022/01/31 08:59:07;;;;;;;11.32;2.50;;;5.60;99.90;;;;;;5133189;27;20039;-80
2022/01/31 09:01:33;;;;;;;10.60;2.05;;;5.60;99.90;;;;;;5133477;27;20055;-80
2022/01/31 09:04:05;;;;;;;9.43;2.10;;;5.70;99.90;;;;;;5132477;27;20092;-80
2022/01/31 09:06:34;;;;;;;11.10;2.45;;;5.70;99.90;;;;;;5133519;27;20050;-80
2022/01/31 09:09:05;;;;;;;11.10;2.50;;;5.80;99.90;;;;;;5132872;27;20058;-77
2022/01/31 09:11:31;;;;;;;11.95;2.28;;;5.80;99.90;;;;;;5133631;27;20396;-70
2022/01/31 09:13:58;;;;;;;10.93;2.90;;;5.90;99.90;;;;;;5132254;27;20118;-78
2022/01/31 09:16:24;;;;;;;13.35;2.80;;;5.90;99.90;;;;;;5133287;27;20100;-79
2022/01/31 09:18:50;;;;;;;10.13;2.88;;;5.90;99.90;;;;;;5133286;28;20082;-80
2022/01/31 09:21:16;;;;;;;12.25;2.60;;;6.00;99.90;;;;;;5132677;27;20043;-80
2022/01/31 09:23:42;;;;;;;13.30;3.13;;;6.00;99.90;;;;;;5133233;28;20104;-80
2022/01/31 09:26:08;;;;;;;11.07;2.30;;;6.00;99.90;;;;;;5131492;28;20133;-80
2022/01/31 09:28:35;;;;;;;10.88;2.28;;;6.00;99.90;;;;;;5132752;28;20118;-80
2022/01/31 09:31:01;;;;;;;8.32;2.10;;;6.00;99.90;;;;;;5131748;28;20100;-80
2022/01/31 09:33:27;;;;;;;9.70;2.20;;;6.10;99.90;;;;;;5133957;27;20429;-80
2022/01/31 09:35:53;;;;;;;10.05;2.20;;;6.10;99.90;;;;;;5137123;27;20051;-80
2022/01/31 09:38:23;;;;;;;9.85;2.70;;;6.10;99.90;;;;;;5136328;27;20043;-80
2022/01/31 09:40:49;;;;;;;9.75;2.25;;;6.20;99.90;;;;;;5137259;27;20054;-80
2022/01/31 09:48:37;;;;;;;8.65;1.77;;;6.30;99.90;;;;;;5136249;27;20058;-70
2022/01/31 09:51:10;;;;;;;7.38;1.45;;;6.30;99.90;;;;;;5136085;27;20049;-70
2022/01/31 09:53:43;;;;;;;6.03;1.40;;;6.20;99.90;;;;;;5136387;27;20045;-71
2022/01/31 09:56:11;;;;;;;5.65;1.40;;;6.30;99.90;;;;;;5136200;27;20043;-74
2022/01/31 09:58:38;;;;;;;8.00;1.70;;;6.30;99.90;;;;;;5136678;27;20061;-81
2022/01/31 10:01:05;;;;;;;4.97;1.30;;;6.30;99.90;;;;;;5135916;27;20039;-80
2022/01/31 10:03:31;;;;;;;8.07;1.60;;;6.30;99.90;;;;;;5136210;27;20051;-79
2022/01/31 10:05:57;;;;;;;8.15;1.85;;;6.30;99.90;;;;;;5136528;27;20540;-80
2022/01/31 10:08:28;;;;;;;5.75;1.42;;;6.30;99.90;;;;;;5135932;27;20139;-80
2022/01/31 10:11:00;;;;;;;6.85;1.30;;;6.50;99.90;;;;;;5136298;27;20035;-80
2022/01/31 10:16:28;;;;;;;7.82;1.70;;;6.70;99.90;;;;;;5134658;27;20500;-72
2022/01/31 10:19:06;;;;;;;6.40;1.52;;;6.70;99.90;;;;;;5136455;27;20066;-71
2022/01/31 10:21:51;;;;;;;6.45;1.55;;;6.80;99.90;;;;;;5136227;27;20047;-72
2022/01/31 10:24:17;;;;;;;6.63;1.80;;;6.80;99.90;;;;;;5135610;27;20051;-71
2022/01/31 10:26:43;;;;;;;4.50;1.55;;;6.80;99.90;;;;;;5134607;27;20053;-71
2022/01/31 10:29:14;;;;;;;7.00;1.30;;;6.80;99.90;;;;;;5135517;27;20072;-71
2022/01/31 10:31:58;;;;;;;;;;;6.80;99.90;;;;;;5136285;27;20135;-71
2022/01/31 10:34:26;;;;;;;5.05;1.40;;;6.80;99.90;;;;;;5135453;27;19920;-71
2022/01/31 10:36:52;;;;;;;6.25;1.50;;;6.90;99.90;;;;;;5135607;27;20043;-72
2022/01/31 10:54:04;;;;;;;6.13;1.50;;;7.00;99.90;;;;;;5134811;27;20077;-72
2022/01/31 10:56:42;;;;;;;10.40;2.17;;;7.00;99.90;;;;;;5135165;27;20047;-80
2022/01/31 10:59:14;;;;;;;5.70;1.60;;;7.00;99.90;;;;;;5134639;27;20059;-79
2022/01/31 11:01:42;;;;;;;4.72;1.40;;;7.00;99.90;;;;;;5134874;27;20503;-80
2022/01/31 11:04:15;;;;;;;7.57;1.80;;;7.00;99.90;;;;;;5134641;27;20047;-75
2022/01/31 11:06:42;;;;;;;5.97;1.67;;;7.00;99.90;;;;;;5135560;27;20047;-81
2022/01/31 11:09:10;;;;;;;4.55;1.20;;;7.10;99.90;;;;;;5134721;27;20059;-74
2022/01/31 11:11:42;;;;;;;5.93;1.35;;;7.10;99.90;;;;;;5135185;27;20074;-80
2022/01/31 11:14:09;;;;;;;4.32;1.20;;;7.20;99.90;;;;;;5133838;27;20043;-75
2022/01/31 11:16:37;;;;;;;5.88;1.35;;;7.20;99.90;;;;;;5135756;27;20392;-81
2022/01/31 11:19:08;;;;;;;5.05;1.00;;;7.20;99.90;;;;;;5134622;27;20180;-81
2022/01/31 11:21:40;;;;;;;4.88;1.40;;;7.30;99.90;;;;;;5134736;27;20046;-80
2022/01/31 11:24:19;;;;;;;5.93;1.30;;;7.30;99.90;;;;;;5135199;27;20047;-80
2022/01/31 11:26:56;;;;;;;4.82;1.50;;;7.30;99.90;;;;;;5134912;27;20476;-81
2022/01/31 11:29:22;;;;;;;3.80;1.10;;;7.30;99.90;;;;;;5133976;27;20039;-80
2022/01/31 11:31:48;;;;;;;6.03;1.30;;;7.30;99.90;;;;;;5134870;27;20046;-80
2022/01/31 11:34:14;;;;;;;7.93;1.10;;;7.40;99.90;;;;;;5134119;27;20055;-80
2022/01/31 11:36:41;;;;;;;5.68;1.27;;;7.40;99.90;;;;;;5134707;27;20051;-80
2022/01/31 11:39:13;;;;;;;6.07;1.30;;;7.50;99.90;;;;;;5134377;27;20047;-80
2022/01/31 11:42:01;;;;;;;7.07;1.63;;;7.50;99.90;;;;;;5134214;27;20464;-80
2022/01/31 11:44:40;;;;;;;5.30;1.63;;;7.60;99.90;;;;;;5128352;27;20459;-79
2022/01/31 11:47:08;;;;;;;5.43;1.80;;;7.60;99.90;;;;;;5128875;27;20116;-77
2022/01/31 11:49:48;;;;;;;8.15;1.60;;;7.70;99.90;;;;;;5130022;27;20355;-77
2022/01/31 11:52:15;;;;;;;7.40;1.52;;;7.80;99.90;;;;;;5115867;27;20495;-75
2022/01/31 11:55:00;;;;;;;8.70;2.42;;;7.90;99.90;;;;;;5130708;27;20373;-78
2022/01/31 11:57:31;;;;;;;6.90;1.50;;;8.00;99.90;;;;;;5130299;27;20049;-78
2022/01/31 12:00:00;;;;;;;7.95;1.77;;;8.10;99.90;;;;;;5131175;27;20445;-79
2022/01/31 12:02:41;;;;;;;7.00;1.77;;;8.20;99.90;;;;;;5127846;27;20403;-79
2022/01/31 12:05:08;;;;;;;7.30;1.70;;;8.30;99.90;;;;;;5131613;27;20047;-72
2022/01/31 12:07:44;;;;;;;9.25;1.60;;;8.40;99.90;;;;;;5112741;27;20043;-76
2022/01/31 12:10:19;;;;;;;5.50;1.70;;;8.40;99.90;;;;;;5131283;27;20047;-78
2022/01/31 12:23:41;;;;;;;7.57;1.70;;;8.10;99.90;;;;;;5130964;27;20408;-80
2022/01/31 12:26:29;;;;;;;8.77;1.88;;;8.10;99.90;;;;;;5131604;27;20049;-80
2022/01/31 12:28:58;;;;;;;9.15;2.28;;;8.10;99.90;;;;;;5130733;27;20288;-80
2022/01/31 12:31:41;;;;;;;13.38;3.58;;;8.20;99.90;;;;;;5130317;27;20043;-79
2022/01/31 12:34:32;;;;;;;12.32;2.63;;;8.30;99.90;;;;;;5130013;27;20449;-80
2022/01/31 12:37:01;;;;;;;9.93;2.63;;;8.20;99.90;;;;;;5121124;27;20566;-79
2022/01/31 12:39:41;;;;;;;9.38;2.15;;;8.20;99.90;;;;;;5129907;27;20084;-80
2022/01/31 12:45:37;;;;;;;10.82;2.30;;;8.30;99.90;;;;;;5130260;27;20062;-80
2022/01/31 12:48:13;;;;;;;8.07;1.83;;;8.30;99.90;;;;;;5130875;27;20051;-79
2022/01/31 12:50:49;;;;;;;7.63;2.13;;;8.30;99.90;;;;;;5130272;27;20499;-80
2022/01/31 12:53:24;;;;;;;8.82;2.00;;;8.30;99.90;;;;;;5130625;28;20047;-80
2022/01/31 12:56:02;;;;;;;6.38;1.60;;;8.20;99.90;;;;;;5128969;28;20477;-77
2022/01/31 12:58:35;;;;;;;8.75;1.85;;;8.20;99.90;;;;;;5129262;27;20070;-80
2022/01/31 13:01:22;;;;;;;9.23;2.10;;;8.20;99.90;;;;;;5127973;28;20051;-80
2022/01/31 13:04:05;;;;;;;7.72;1.63;;;8.10;99.90;;;;;;5126878;28;20035;-78
2022/01/31 13:06:51;;;;;;;7.03;2.40;;;8.10;99.90;;;;;;5128883;28;20369;-79
2022/01/31 13:09:28;;;;;;;9.10;2.22;;;8.00;99.90;;;;;;5130889;27;20508;-79
2022/01/31 13:11:56;;;;;;;10.40;1.70;;;7.90;99.90;;;;;;5134197;27;20051;-79
2022/01/31 13:14:31;;;;;;;8.98;1.92;;;7.90;99.90;;;;;;5133903;27;20047;-75
2022/01/31 13:17:26;;;;;;;6.15;1.83;;;7.90;99.90;;;;;;5134258;27;20103;-80
2022/01/31 13:20:00;;;;;;;8.68;2.05;;;7.90;99.90;;;;;;5131088;27;20054;-81
2022/01/31 13:22:39;;;;;;;8.07;1.95;;;7.90;99.90;;;;;;5133244;27;20468;-70
2022/01/31 13:25:12;;;;;;;10.02;2.42;;;7.90;99.90;;;;;;5133855;27;20058;-80
2022/01/31 13:27:41;;;;;;;7.45;2.42;;;8.00;99.90;;;;;;5133016;27;20039;-78
2022/01/31 13:30:09;;;;;;;5.97;1.63;;;8.00;99.90;;;;;;5132320;27;20348;-80
2022/01/31 13:32:37;;;;;;;9.80;1.77;;;8.00;99.90;;;;;;5133612;27;20045;-77
2022/01/31 13:35:09;;;;;;;7.50;2.03;;;8.10;99.90;;;;;;5133606;27;20047;-79